Airfield :
LOGIN :

Register | Disclaimer

   EN    FR    IT 

 










Legend :    VFR   Marginal VFR   IFR   Intensive IFR   Very Intensive IFR
Visi :
Ceiling :
>= 8 km
>= 3000ft
5 to 8 km
1000 to 3000 ft
1500m to 5 km
500 to 1000 ft
800 to 1500m
200 to 500 ft
< 800m
< 200 ft
Symbols :   Thunderstorms  Fog  Heavy snow  Heavy precipitations  Wind > 20 kt
SIGMETs :     Misc.  Thunderstorms  Icing  Turbulence  Mountain Waves  Volcanic Ashes






- Airport Elevation : 465 ft


ENFB - Statfjord B Platform

CURRENT METAR :
  • 060950Z AUTO 24002KT 9999NDV FEW042/// BKN055/// 15/13 Q1016 W///S4

EXPIRED METARs :
  • 060920Z AUTO 23005KT 9999NDV FEW014/// OVC062/// 15/14 Q1015 W///S4
  • 060850Z AUTO 23006KT 9999NDV OVC062/// 15/14 Q1015 W///S4
  • 060820Z AUTO 21004KT 9999NDV FEW008/// BKN063/// 15/13 Q1015 W///S4
  • 060750Z AUTO 22007KT 9999NDV BKN009/// BKN065/// 14/13 Q1014 W///S3
  • 060720Z AUTO 23007KT 9999NDV BKN008/// OVC053/// 14/13 Q1014 W///S3

TAF N/A



MET'MAP, your aeronautical weather chart ! - Copyright ORBIFLY December 2007 - Disclaimer

ORBIFLY MET'MAP TEAM :

Programming & Development : Alexandra Zaïnal
Concept & original design : Baudouin d'Aumeries
Assistance for programming : Marc-Olivier Méhu
Technical & hardware support : Manuel Goepfert

Contact : metmap@orbifly.com




SOURCES & CREDITS :

   NOAA